Time;durP1;ratioP1;P1;durP2;ratioP2;P2;SDS_P1;SDS_P2;PMS_P1;PMS_P2;Temp;Humidity;BMP_temperature;BMP_pressure;BME280_temperature;BME280_humidity;BME280_pressure;Samples;Min_cycle;Max_cycle;Signal;HPM_P1;HPM_P2
2021/06/08 00:00:28;;;;;;;2.45;1.10;;;16.00;74.40;;;;;;5075201;28;20024;-54
2021/06/08 00:02:56;;;;;;;2.88;0.90;;;16.00;74.30;;;;;;5075014;28;20029;-48
2021/06/08 00:05:23;;;;;;;3.08;1.00;;;16.00;74.30;;;;;;5075501;28;20031;-51
2021/06/08 00:07:51;;;;;;;0.90;0.80;;;16.00;74.30;;;;;;5075267;28;20043;-49
2021/06/08 00:10:19;;;;;;;3.05;1.50;;;16.00;74.50;;;;;;5075491;28;20059;-55
2021/06/08 00:12:47;;;;;;;1.80;0.60;;;16.00;74.00;;;;;;5074412;28;20487;-53
2021/06/08 00:15:15;;;;;;;2.78;1.00;;;16.00;74.30;;;;;;5074743;28;20483;-58
2021/06/08 00:17:43;;;;;;;1.42;0.80;;;16.00;74.40;;;;;;5075060;28;20049;-53
2021/06/08 00:20:11;;;;;;;3.22;0.73;;;16.00;74.10;;;;;;5074749;28;20025;-52
2021/06/08 00:22:39;;;;;;;0.85;0.60;;;16.00;74.20;;;;;;5074956;28;20028;-54
2021/06/08 00:25:07;;;;;;;7.13;1.60;;;16.10;74.40;;;;;;5056743;28;20020;-56
2021/06/08 00:27:34;;;;;;;1.52;1.13;;;16.10;74.50;;;;;;5075072;28;20020;-58
2021/06/08 00:30:02;;;;;;;1.70;0.88;;;16.10;74.50;;;;;;5074564;28;20028;-60
2021/06/08 00:32:29;;;;;;;3.20;0.93;;;16.10;74.50;;;;;;5074129;28;20124;-54
2021/06/08 00:34:56;;;;;;;2.33;0.70;;;16.10;74.70;;;;;;5074513;28;20112;-56
2021/06/08 00:37:24;;;;;;;3.15;0.85;;;16.10;74.40;;;;;;5074620;28;20052;-55
2021/06/08 00:39:54;;;;;;;1.85;1.08;;;16.10;74.30;;;;;;5074794;28;20031;-54
2021/06/08 00:42:29;;;;;;;1.27;0.52;;;16.10;74.60;;;;;;5056276;28;20020;-52
2021/06/08 00:44:56;;;;;;;1.80;0.80;;;16.10;74.60;;;;;;5056562;28;20067;-61
2021/06/08 00:47:24;;;;;;;1.48;0.63;;;16.10;74.50;;;;;;5074016;28;20479;-63
2021/06/08 00:49:52;;;;;;;0.82;0.60;;;16.20;74.50;;;;;;5074523;28;20059;-63
2021/06/08 00:52:20;;;;;;;1.90;1.05;;;16.20;74.40;;;;;;5074988;28;20106;-58
2021/06/08 00:54:47;;;;;;;3.17;0.88;;;16.20;74.30;;;;;;5074225;28;20055;-60
2021/06/08 00:57:15;;;;;;;3.75;0.90;;;16.20;74.40;;;;;;5074661;28;20020;-60
2021/06/08 00:59:42;;;;;;;2.42;0.70;;;16.20;74.60;;;;;;5073644;28;20024;-58
2021/06/08 01:02:10;;;;;;;3.45;0.70;;;16.20;74.50;;;;;;5073320;28;20104;-61
2021/06/08 01:04:37;;;;;;;1.00;0.75;;;16.20;74.60;;;;;;5073715;28;20036;-60
2021/06/08 01:07:04;;;;;;;2.90;0.65;;;16.20;74.50;;;;;;5074234;28;20021;-61
2021/06/08 01:09:32;;;;;;;1.27;0.65;;;16.20;73.50;;;;;;5074058;28;20029;-59
2021/06/08 01:11:59;;;;;;;2.00;0.77;;;16.30;74.40;;;;;;5073910;28;20024;-58
2021/06/08 01:14:26;;;;;;;2.13;1.00;;;16.30;74.10;;;;;;5073330;28;20049;-54
2021/06/08 01:16:54;;;;;;;2.38;0.95;;;16.30;74.40;;;;;;5073672;28;20020;-58
2021/06/08 01:19:22;;;;;;;2.42;0.77;;;16.30;74.30;;;;;;5073858;28;20025;-55
2021/06/08 01:21:49;;;;;;;1.88;1.10;;;16.30;74.10;;;;;;5074086;28;20024;-55
2021/06/08 01:24:17;;;;;;;3.03;1.10;;;16.30;74.00;;;;;;5074062;28;20025;-53
2021/06/08 01:26:45;;;;;;;2.03;0.88;;;16.30;74.00;;;;;;5073255;28;20033;-61
2021/06/08 01:29:13;;;;;;;1.48;0.88;;;16.30;74.50;;;;;;5073758;28;20356;-56
2021/06/08 01:31:42;;;;;;;3.60;1.10;;;16.30;73.90;;;;;;5074113;28;20020;-52
2021/06/08 01:34:09;;;;;;;2.17;0.95;;;16.30;74.40;;;;;;5073519;28;20047;-52
2021/06/08 01:36:40;;;;;;;1.75;1.00;;;16.40;74.20;;;;;;5073578;28;20028;-50
2021/06/08 01:39:08;;;;;;;1.70;0.80;;;16.40;74.50;;;;;;5072188;28;20028;-55
2021/06/08 01:41:38;;;;;;;1.35;0.70;;;16.40;74.10;;;;;;5072557;28;20379;-55
2021/06/08 01:44:06;;;;;;;1.85;0.90;;;16.40;74.70;;;;;;5073798;28;20078;-57
2021/06/08 01:46:33;;;;;;;3.33;1.25;;;16.40;74.30;;;;;;5073554;28;20511;-55
2021/06/08 01:49:04;;;;;;;3.63;1.10;;;16.40;74.10;;;;;;5072949;28;20392;-52
2021/06/08 01:51:48;;;;;;;1.85;0.90;;;16.40;74.40;;;;;;5073090;28;20028;-58
2021/06/08 01:54:33;;;;;;;2.65;1.10;;;16.40;74.10;;;;;;5073121;28;20033;-58
2021/06/08 01:57:50;;;;;;;2.17;0.88;;;16.40;73.90;;;;;;5073348;28;20020;-60
2021/06/08 02:00:42;;;;;;;2.17;0.80;;;16.50;74.30;;;;;;5056058;28;20059;-57
2021/06/08 02:03:22;;;;;;;1.77;0.82;;;16.50;74.40;;;;;;5069958;28;20523;-56
2021/06/08 02:06:01;;;;;;;3.17;0.95;;;16.50;74.50;;;;;;5054696;28;20036;-49
2021/06/08 02:08:53;;;;;;;3.88;1.02;;;16.50;74.30;;;;;;5072665;28;20071;-61
2021/06/08 02:12:07;;;;;;;1.48;0.95;;;16.50;74.10;;;;;;5072927;28;20025;-51
2021/06/08 02:14:51;;;;;;;2.72;1.75;;;16.50;74.40;;;;;;5054031;28;20060;-58
2021/06/08 02:17:42;;;;;;;2.22;1.10;;;16.50;73.70;;;;;;5072405;28;20024;-60
2021/06/08 02:20:32;;;;;;;1.25;0.80;;;16.60;75.00;;;;;;5072762;28;20055;-55
2021/06/08 02:23:03;;;;;;;2.53;1.00;;;16.60;74.00;;;;;;5072013;28;20021;-52
2021/06/08 02:25:32;;;;;;;4.97;1.23;;;16.60;74.30;;;;;;5072712;28;20021;-58
2021/06/08 02:28:04;;;;;;;3.15;1.13;;;16.60;73.40;;;;;;5072882;28;20016;-59
2021/06/08 02:30:32;;;;;;;;;;;16.60;73.80;;;;;;5072851;28;20032;-50
2021/06/08 02:33:00;;;;;;;2.03;1.02;;;16.60;73.90;;;;;;5072259;28;19905;-61
2021/06/08 02:35:28;;;;;;;3.10;1.02;;;16.60;73.50;;;;;;5072266;28;20471;-59
2021/06/08 02:37:57;;;;;;;1.55;0.82;;;16.60;74.00;;;;;;5072380;28;20431;-61
2021/06/08 02:40:26;;;;;;;1.48;0.85;;;16.60;74.10;;;;;;5071970;28;20048;-55
2021/06/08 02:42:53;;;;;;;4.05;0.90;;;16.60;74.10;;;;;;5054049;28;20031;-55
2021/06/08 02:45:21;;;;;;;1.67;0.73;;;16.60;74.10;;;;;;5053641;28;20031;-59
2021/06/08 02:47:51;;;;;;;12.50;1.10;;;16.60;74.10;;;;;;5072187;28;20035;-60
2021/06/08 02:50:22;;;;;;;3.05;1.27;;;16.60;73.80;;;;;;5071721;28;20473;-57
2021/06/08 02:52:54;;;;;;;1.30;1.13;;;16.60;73.80;;;;;;5071978;28;20166;-56
2021/06/08 02:55:27;;;;;;;1.70;0.73;;;16.60;73.70;;;;;;5071874;28;20113;-53
2021/06/08 02:57:57;;;;;;;1.80;0.63;;;16.60;73.80;;;;;;5071880;28;20485;-63
2021/06/08 03:00:26;;;;;;;4.10;1.20;;;16.60;73.90;;;;;;5071773;28;20025;-59
2021/06/08 03:02:56;;;;;;;3.28;0.77;;;16.60;73.90;;;;;;5072028;28;20028;-59
2021/06/08 03:05:37;;;;;;;4.25;0.80;;;16.60;73.90;;;;;;5072130;28;20107;-63
2021/06/08 03:08:13;;;;;;;4.07;1.20;;;16.70;73.60;;;;;;5071993;28;20032;-58
2021/06/08 03:10:43;;;;;;;3.83;1.00;;;16.60;73.80;;;;;;5071710;28;20082;-59
2021/06/08 03:13:12;;;;;;;3.47;1.00;;;16.70;73.40;;;;;;5071846;28;20044;-59
2021/06/08 03:15:47;;;;;;;2.13;0.80;;;16.60;73.30;;;;;;5072020;28;20505;-60
2021/06/08 03:18:18;;;;;;;2.63;0.95;;;16.70;73.50;;;;;;5072265;28;20493;-50
2021/06/08 03:20:52;;;;;;;2.47;0.90;;;16.70;73.40;;;;;;5071639;28;20083;-47
2021/06/08 03:23:23;;;;;;;1.67;0.90;;;16.80;73.20;;;;;;5072262;28;20443;-57
2021/06/08 03:25:52;;;;;;;2.83;0.82;;;16.80;73.90;;;;;;5071890;28;20025;-58
2021/06/08 03:28:24;;;;;;;3.75;1.00;;;16.80;73.80;;;;;;5072156;28;20468;-57
2021/06/08 03:30:52;;;;;;;0.63;0.47;;;16.80;73.80;;;;;;5072067;28;20030;-55
2021/06/08 03:33:21;;;;;;;0.73;0.55;;;16.80;73.40;;;;;;5071888;28;20544;-56
2021/06/08 03:35:50;;;;;;;2.92;0.80;;;16.90;73.20;;;;;;5072123;28;20475;-57
2021/06/08 03:38:19;;;;;;;2.50;0.98;;;16.90;72.90;;;;;;5071605;28;20033;-62
2021/06/08 03:40:46;;;;;;;2.67;0.95;;;17.00;73.00;;;;;;5071656;28;20060;-59
2021/06/08 03:43:15;;;;;;;2.15;0.73;;;17.00;73.70;;;;;;5071548;28;20095;-52
2021/06/08 03:45:46;;;;;;;2.60;1.05;;;17.10;73.50;;;;;;5071088;28;20086;-60
2021/06/08 03:48:15;;;;;;;3.42;0.80;;;17.30;74.30;;;;;;5071327;28;20176;-52
2021/06/08 03:50:44;;;;;;;3.33;0.93;;;17.50;73.70;;;;;;5071209;28;20435;-60
2021/06/08 03:53:11;;;;;;;1.08;0.82;;;17.70;71.40;;;;;;5071645;28;20153;-63
2021/06/08 03:55:39;;;;;;;2.65;1.15;;;17.90;72.40;;;;;;5071524;28;20028;-59
2021/06/08 03:58:13;;;;;;;1.20;0.80;;;18.20;70.70;;;;;;5071686;28;20017;-60
2021/06/08 04:00:42;;;;;;;4.95;1.40;;;18.50;68.50;;;;;;5071321;28;20032;-62
2021/06/08 04:03:12;;;;;;;4.10;1.15;;;18.70;66.90;;;;;;5071272;28;20470;-58
2021/06/08 04:05:41;;;;;;;3.80;0.75;;;18.90;67.20;;;;;;5070894;28;20533;-66
2021/06/08 04:08:11;;;;;;;5.88;1.10;;;19.00;65.20;;;;;;5071322;28;20021;-56
2021/06/08 04:10:45;;;;;;;1.58;0.75;;;19.10;66.50;;;;;;5071455;28;20490;-59
2021/06/08 04:13:13;;;;;;;3.40;1.05;;;19.20;65.30;;;;;;5053485;28;20053;-60
2021/06/08 04:15:41;;;;;;;2.17;0.65;;;19.50;65.30;;;;;;5053421;28;20107;-60
2021/06/08 04:18:10;;;;;;;1.63;0.77;;;19.50;64.70;;;;;;5071247;28;20029;-59
2021/06/08 04:20:38;;;;;;;2.08;0.82;;;19.60;64.40;;;;;;5071424;28;20028;-58
2021/06/08 04:23:06;;;;;;;1.77;0.75;;;19.80;63.20;;;;;;5071187;28;20017;-58
2021/06/08 04:25:33;;;;;;;1.33;0.80;;;19.90;63.20;;;;;;5071084;28;20024;-60
2021/06/08 04:28:02;;;;;;;2.30;1.00;;;19.90;62.90;;;;;;5071085;28;20036;-56
2021/06/08 04:30:29;;;;;;;2.53;0.73;;;20.10;62.30;;;;;;5070733;28;20024;-62
2021/06/08 04:32:57;;;;;;;1.00;0.60;;;20.10;62.40;;;;;;5071179;28;20103;-60
2021/06/08 04:35:24;;;;;;;3.03;0.88;;;20.20;61.90;;;;;;5035933;28;20087;-52
2021/06/08 04:37:54;;;;;;;1.92;0.90;;;20.10;60.80;;;;;;5072149;28;20021;-58
2021/06/08 04:40:23;;;;;;;1.35;0.80;;;19.90;60.80;;;;;;5074468;28;20033;-56
2021/06/08 04:42:51;;;;;;;1.50;0.68;;;19.90;62.90;;;;;;5056460;28;20028;-60
2021/06/08 04:45:18;;;;;;;1.75;0.68;;;19.90;63.10;;;;;;5074509;28;20037;-55
2021/06/08 04:47:47;;;;;;;4.90;1.10;;;19.90;62.10;;;;;;5074273;28;20021;-52
2021/06/08 04:50:16;;;;;;;4.47;0.88;;;19.80;61.90;;;;;;5055902;28;20043;-57
2021/06/08 04:52:44;;;;;;;2.38;0.98;;;19.80;62.60;;;;;;5073772;28;20498;-60
2021/06/08 04:55:12;;;;;;;1.98;0.73;;;19.60;62.60;;;;;;5074247;28;20182;-58
2021/06/08 04:57:40;;;;;;;2.42;1.00;;;19.60;63.00;;;;;;5074250;28;20029;-49
2021/06/08 05:00:13;;;;;;;2.55;1.00;;;19.50;63.10;;;;;;5074329;28;20162;-62
2021/06/08 05:02:56;;;;;;;2.58;0.80;;;19.30;62.90;;;;;;5069452;28;20020;-56
2021/06/08 05:05:33;;;;;;;2.13;0.75;;;19.10;64.00;;;;;;5073723;28;20056;-54
2021/06/08 05:08:22;;;;;;;2.13;0.75;;;19.00;64.40;;;;;;5074119;28;20025;-58
2021/06/08 05:10:55;;;;;;;2.50;0.75;;;18.80;65.00;;;;;;5056064;28;20028;-53
2021/06/08 05:13:25;;;;;;;3.70;0.90;;;18.70;64.80;;;;;;5073865;28;20063;-53
2021/06/08 05:15:54;;;;;;;3.65;0.82;;;18.60;66.10;;;;;;5073544;28;20039;-55
2021/06/08 05:18:23;;;;;;;4.35;1.00;;;18.50;66.00;;;;;;5073849;28;20024;-59
2021/06/08 05:20:50;;;;;;;2.10;0.85;;;18.40;66.60;;;;;;5073790;28;20035;-58
2021/06/08 05:23:18;;;;;;;1.65;0.88;;;18.30;67.20;;;;;;5074110;28;20479;-56
2021/06/08 05:25:49;;;;;;;1.30;0.73;;;18.30;67.50;;;;;;5073951;28;20027;-57
2021/06/08 05:28:18;;;;;;;1.30;0.82;;;18.20;67.80;;;;;;5073918;28;20024;-56
2021/06/08 05:30:49;;;;;;;5.68;0.77;;;18.10;68.00;;;;;;5073187;28;20083;-59
2021/06/08 05:33:21;;;;;;;3.67;0.93;;;18.00;68.30;;;;;;5073650;28;20119;-57
2021/06/08 05:35:58;;;;;;;2.97;0.80;;;18.00;68.70;;;;;;5055439;28;20387;-61
2021/06/08 05:38:39;;;;;;;5.47;1.15;;;18.00;68.80;;;;;;5072915;28;20509;-57
2021/06/08 05:41:09;;;;;;;1.25;0.73;;;17.90;69.20;;;;;;5073242;28;20044;-54
2021/06/08 05:43:37;;;;;;;6.07;1.10;;;17.90;69.70;;;;;;5073350;28;20036;-58
2021/06/08 05:46:06;;;;;;;1.65;0.80;;;17.80;69.40;;;;;;5073196;28;20388;-57
2021/06/08 05:48:35;;;;;;;1.50;0.70;;;17.80;70.30;;;;;;5062701;28;20028;-54
2021/06/08 05:51:04;;;;;;;1.17;0.80;;;17.80;70.20;;;;;;5047290;28;20502;-57
2021/06/08 05:53:33;;;;;;;2.75;0.70;;;17.80;70.00;;;;;;5070564;28;20025;-49
2021/06/08 05:56:02;;;;;;;2.25;0.70;;;17.70;70.70;;;;;;5070270;28;20032;-54
2021/06/08 05:58:31;;;;;;;3.72;1.00;;;17.70;70.80;;;;;;5052431;28;20048;-55
2021/06/08 06:01:00;;;;;;;1.27;0.80;;;17.70;70.80;;;;;;5067020;28;20463;-44
2021/06/08 06:03:28;;;;;;;1.38;0.73;;;17.70;71.00;;;;;;5069855;28;20021;-49
2021/06/08 06:05:56;;;;;;;4.30;1.10;;;17.70;71.80;;;;;;5066909;28;20060;-48
2021/06/08 06:08:26;;;;;;;1.02;0.75;;;17.70;71.10;;;;;;5069452;28;20098;-51
2021/06/08 06:10:53;;;;;;;1.70;0.73;;;17.60;71.50;;;;;;5065891;28;20039;-48
2021/06/08 06:13:25;;;;;;;1.08;0.60;;;17.60;71.70;;;;;;5070038;28;20052;-52
2021/06/08 06:15:54;;;;;;;1.98;0.90;;;17.60;71.30;;;;;;5069965;28;20033;-49
2021/06/08 06:18:22;;;;;;;1.42;0.80;;;17.60;71.60;;;;;;5069212;28;20035;-57
2021/06/08 06:20:54;;;;;;;1.77;1.05;;;17.70;71.80;;;;;;5066422;28;20119;-57
2021/06/08 06:23:24;;;;;;;3.38;0.93;;;17.60;72.00;;;;;;5069278;28;20099;-54
2021/06/08 06:25:53;;;;;;;3.80;1.00;;;17.60;71.90;;;;;;5068928;28;20036;-51
2021/06/08 06:28:24;;;;;;;0.80;0.63;;;17.60;72.10;;;;;;5069538;28;20029;-46
2021/06/08 06:30:53;;;;;;;2.08;1.25;;;17.60;72.60;;;;;;5066625;28;20059;-51
2021/06/08 06:33:23;;;;;;;1.48;0.90;;;17.60;72.70;;;;;;5068836;28;20458;-47
2021/06/08 06:35:51;;;;;;;4.97;0.80;;;17.60;72.80;;;;;;5069545;28;20491;-50
2021/06/08 06:38:20;;;;;;;1.60;0.70;;;17.60;73.00;;;;;;5069481;28;20364;-52
2021/06/08 06:40:51;;;;;;;0.77;0.52;;;17.50;72.90;;;;;;5065857;28;20032;-44
2021/06/08 06:43:28;;;;;;;1.80;0.83;;;17.50;73.00;;;;;;5048721;28;20542;-50
2021/06/08 06:45:55;;;;;;;0.82;0.50;;;17.60;73.30;;;;;;5069775;28;20025;-56
2021/06/08 06:48:23;;;;;;;1.70;0.70;;;17.50;73.30;;;;;;5068814;28;20052;-51
2021/06/08 06:50:53;;;;;;;1.88;0.65;;;17.50;73.30;;;;;;5065826;28;20123;-45
2021/06/08 06:53:21;;;;;;;1.63;1.20;;;17.50;73.40;;;;;;5068758;28;20025;-48
2021/06/08 06:55:51;;;;;;;1.58;0.82;;;17.50;73.50;;;;;;5069317;28;20509;-53
2021/06/08 06:58:20;;;;;;;1.75;0.80;;;17.50;73.50;;;;;;5068777;28;20071;-53
2021/06/08 07:00:49;;;;;;;1.70;0.98;;;17.50;73.60;;;;;;5065027;28;20020;-56
2021/06/08 07:03:24;;;;;;;3.15;0.93;;;17.50;73.60;;;;;;5068584;28;20100;-51
2021/06/08 07:05:52;;;;;;;5.43;0.90;;;17.50;73.60;;;;;;5051323;28;20108;-47
2021/06/08 07:08:26;;;;;;;3.97;1.23;;;17.50;73.70;;;;;;5051591;28;20024;-52
2021/06/08 07:10:54;;;;;;;1.50;0.80;;;17.50;73.80;;;;;;5065731;28;20035;-54
2021/06/08 07:13:22;;;;;;;2.03;0.75;;;17.50;73.80;;;;;;5068424;28;20123;-48
2021/06/08 07:15:52;;;;;;;1.73;0.90;;;17.50;73.80;;;;;;5069126;28;20032;-57
2021/06/08 07:18:20;;;;;;;2.65;0.80;;;17.50;73.80;;;;;;5068760;28;20051;-50
2021/06/08 07:20:48;;;;;;;4.05;1.17;;;17.50;73.90;;;;;;5064573;28;20033;-57
2021/06/08 07:23:20;;;;;;;3.45;0.98;;;17.50;74.00;;;;;;5065383;28;20021;-52
2021/06/08 07:25:50;;;;;;;2.38;0.85;;;17.50;73.80;;;;;;5069332;28;20055;-51
2021/06/08 07:28:20;;;;;;;2.17;1.25;;;17.50;73.90;;;;;;5067738;28;20024;-53
2021/06/08 07:30:49;;;;;;;3.00;1.30;;;17.50;74.00;;;;;;5061319;28;20033;-49
2021/06/08 07:33:28;;;;;;;2.25;1.00;;;17.50;74.10;;;;;;5069117;28;20025;-54
2021/06/08 07:36:18;;;;;;;1.45;0.77;;;17.50;74.20;;;;;;5068630;28;20431;-52
2021/06/08 07:38:57;;;;;;;1.40;0.98;;;17.40;74.10;;;;;;5068692;28;20509;-59
2021/06/08 07:41:36;;;;;;;1.88;0.80;;;17.50;74.20;;;;;;5071829;28;20082;-57
2021/06/08 07:44:07;;;;;;;3.33;1.15;;;17.50;74.40;;;;;;5072338;28;20487;-59
2021/06/08 07:46:40;;;;;;;1.77;0.90;;;17.40;74.60;;;;;;5071685;28;20067;-58
2021/06/08 07:49:08;;;;;;;1.48;1.00;;;17.40;74.60;;;;;;5053452;28;20112;-52
2021/06/08 07:51:36;;;;;;;3.42;1.75;;;17.40;74.80;;;;;;5071250;28;20557;-62
2021/06/08 07:54:05;;;;;;;1.67;0.93;;;17.40;74.60;;;;;;5071871;28;20048;-62
2021/06/08 07:56:34;;;;;;;2.80;1.35;;;17.40;75.00;;;;;;5071345;28;20040;-61
2021/06/08 07:59:02;;;;;;;3.67;1.33;;;17.30;74.80;;;;;;5071557;28;20078;-59
2021/06/08 08:01:29;;;;;;;3.50;1.15;;;17.30;74.70;;;;;;5070903;28;20029;-56
2021/06/08 08:03:57;;;;;;;1.23;0.77;;;17.30;75.00;;;;;;5071574;28;20109;-53
2021/06/08 08:06:26;;;;;;;1.98;1.00;;;17.30;75.10;;;;;;5070229;28;20035;-57
2021/06/08 08:08:54;;;;;;;4.63;1.50;;;17.20;74.90;;;;;;5070967;28;20428;-63
2021/06/08 08:11:24;;;;;;;3.08;0.93;;;17.30;75.00;;;;;;5071658;28;20028;-59
2021/06/08 08:13:52;;;;;;;4.50;2.10;;;17.20;74.80;;;;;;5073764;28;20137;-55
2021/06/08 08:16:20;;;;;;;1.73;0.85;;;17.20;74.90;;;;;;5075230;28;20028;-60
2021/06/08 08:18:50;;;;;;;3.13;1.17;;;17.20;75.10;;;;;;5075194;28;20420;-59
2021/06/08 08:21:19;;;;;;;2.65;1.17;;;17.20;75.10;;;;;;5075275;28;20032;-56
2021/06/08 08:23:47;;;;;;;1.88;1.38;;;17.20;75.30;;;;;;5075352;28;20352;-56
2021/06/08 08:26:15;;;;;;;5.28;1.50;;;17.10;75.60;;;;;;5075300;28;20017;-54
2021/06/08 08:28:44;;;;;;;7.20;1.20;;;17.10;75.70;;;;;;5074734;28;20111;-56
2021/06/08 08:31:18;;;;;;;6.53;1.67;;;17.10;75.80;;;;;;5074934;28;20028;-58
2021/06/08 08:33:46;;;;;;;3.00;1.48;;;17.10;75.80;;;;;;5074967;28;20434;-61
2021/06/08 08:36:14;;;;;;;2.22;1.30;;;17.10;75.70;;;;;;5075044;28;20025;-61
2021/06/08 08:38:42;;;;;;;2.97;1.40;;;17.10;76.10;;;;;;5074983;28;20464;-54
2021/06/08 08:41:10;;;;;;;3.78;1.48;;;17.10;77.10;;;;;;5074505;28;20362;-62
2021/06/08 08:43:43;;;;;;;4.00;1.77;;;17.00;77.40;;;;;;5074610;28;20029;-51
2021/06/08 08:46:10;;;;;;;4.28;2.30;;;17.00;77.50;;;;;;5072652;28;20140;-61
2021/06/08 08:48:40;;;;;;;4.93;2.30;;;17.00;77.00;;;;;;5074396;28;20437;-57
2021/06/08 08:51:10;;;;;;;3.33;2.40;;;17.00;76.90;;;;;;5074098;28;20055;-58
2021/06/08 08:53:39;;;;;;;4.07;2.17;;;17.00;77.50;;;;;;5074873;28;20379;-57
2021/06/08 08:56:06;;;;;;;2.90;2.33;;;17.00;78.10;;;;;;5074198;28;20021;-61
2021/06/08 08:58:35;;;;;;;4.18;2.15;;;17.00;76.90;;;;;;5056256;28;20348;-62
2021/06/08 09:01:04;;;;;;;4.55;2.70;;;17.00;77.00;;;;;;5072807;28;20055;-62
2021/06/08 09:03:32;;;;;;;4.50;2.92;;;17.00;77.90;;;;;;5074195;28;20039;-61
2021/06/08 09:06:00;;;;;;;7.90;2.83;;;17.00;77.60;;;;;;5074462;28;20032;-61
2021/06/08 09:08:27;;;;;;;5.63;2.80;;;17.00;78.60;;;;;;5056077;28;20028;-62
2021/06/08 09:10:58;;;;;;;5.85;2.78;;;17.00;78.40;;;;;;5074433;28;20103;-58
2021/06/08 09:13:26;;;;;;;4.18;2.75;;;17.00;78.50;;;;;;5065853;28;20049;-49
2021/06/08 09:15:54;;;;;;;5.82;2.72;;;17.00;77.80;;;;;;5069066;28;20063;-55
2021/06/08 09:18:24;;;;;;;11.90;3.88;;;17.00;78.00;;;;;;5071252;28;20099;-52
2021/06/08 09:20:52;;;;;;;3.90;2.55;;;17.00;77.90;;;;;;5070574;28;20058;-52
2021/06/08 09:23:24;;;;;;;6.35;3.45;;;17.00;78.30;;;;;;5070616;28;20027;-54
2021/06/08 09:25:53;;;;;;;5.85;2.83;;;17.00;78.30;;;;;;5050237;28;20037;-55
2021/06/08 09:28:23;;;;;;;7.32;2.92;;;17.00;78.70;;;;;;5070598;28;20064;-55
2021/06/08 09:30:55;;;;;;;4.57;3.13;;;17.00;78.70;;;;;;5071503;28;20028;-55
2021/06/08 09:33:56;;;;;;;4.13;2.22;;;17.00;78.30;;;;;;5071532;28;20024;-60
2021/06/08 09:36:28;;;;;;;4.95;2.70;;;17.00;78.30;;;;;;5061873;28;20048;-53
2021/06/08 09:39:01;;;;;;;4.82;2.47;;;17.10;78.80;;;;;;5071071;28;20371;-49
2021/06/08 09:41:51;;;;;;;4.18;2.63;;;17.10;78.80;;;;;;5069013;28;20570;-48
2021/06/08 09:44:20;;;;;;;4.57;2.78;;;17.10;78.40;;;;;;5068988;28;20473;-50
2021/06/08 09:46:53;;;;;;;4.93;2.83;;;17.10;78.30;;;;;;5065971;28;20444;-54
2021/06/08 09:49:37;;;;;;;4.35;2.60;;;17.10;78.50;;;;;;5067722;28;20116;-53
2021/06/08 09:52:07;;;;;;;3.20;2.40;;;17.10;78.20;;;;;;5070342;28;20028;-47
2021/06/08 09:54:41;;;;;;;6.30;3.00;;;17.10;78.40;;;;;;5054562;28;20052;-57
2021/06/08 09:57:24;;;;;;;2.95;2.33;;;17.10;79.00;;;;;;5069156;28;20098;-50
2021/06/08 09:59:55;;;;;;;11.80;7.60;;;17.00;78.40;;;;;;5067491;28;20417;-56
2021/06/08 10:02:24;;;;;;;33.53;16.75;;;17.00;78.80;;;;;;5071058;28;20354;-59
2021/06/08 10:04:53;;;;;;;51.97;23.30;;;17.00;78.80;;;;;;5065965;28;20079;-48
2021/06/08 10:07:31;;;;;;;40.25;23.92;;;17.00;78.70;;;;;;5066126;28;20035;-51
2021/06/08 10:10:34;;;;;;;99.00;44.05;;;17.00;79.90;;;;;;5067546;28;20054;-51
2021/06/08 10:13:12;;;;;;;121.97;57.45;;;17.00;79.40;;;;;;5067468;28;20044;-49
2021/06/08 10:15:59;;;;;;;116.97;60.90;;;17.00;79.20;;;;;;5065769;28;20036;-49
2021/06/08 10:18:41;;;;;;;133.05;63.45;;;17.10;79.40;;;;;;5066619;28;20383;-44
2021/06/08 10:21:08;;;;;;;156.20;72.30;;;17.00;79.30;;;;;;5069729;28;20052;-49
2021/06/08 10:23:36;;;;;;;174.07;80.55;;;17.10;79.70;;;;;;5070441;28;20063;-49
2021/06/08 10:26:14;;;;;;;161.70;82.72;;;17.00;79.50;;;;;;5066573;28;20029;-46
2021/06/08 10:28:42;;;;;;;161.52;84.93;;;17.00;79.60;;;;;;5068619;28;20126;-45
2021/06/08 10:31:10;;;;;;;166.00;84.60;;;17.00;79.60;;;;;;5069927;28;20040;-59
2021/06/08 10:33:42;;;;;;;178.05;88.50;;;17.00;79.80;;;;;;5051836;28;20070;-46
2021/06/08 10:36:09;;;;;;;181.07;89.45;;;17.00;79.80;;;;;;5064901;28;20029;-50
2021/06/08 10:38:37;;;;;;;178.35;92.97;;;17.00;80.10;;;;;;5070334;28;20028;-47
2021/06/08 10:41:04;;;;;;;166.30;87.00;;;17.00;80.10;;;;;;5070094;28;20486;-50
2021/06/08 10:43:36;;;;;;;181.90;90.20;;;17.00;80.60;;;;;;5069080;28;20047;-48
2021/06/08 10:46:03;;;;;;;179.77;90.15;;;17.00;80.50;;;;;;5066437;28;20107;-54
2021/06/08 10:48:41;;;;;;;167.25;84.28;;;16.90;80.60;;;;;;5069635;28;20056;-46
2021/06/08 10:51:20;;;;;;;171.75;85.45;;;16.90;81.10;;;;;;5069016;28;20119;-50
2021/06/08 10:53:53;;;;;;;187.50;92.22;;;16.90;81.20;;;;;;5052468;28;20021;-45
2021/06/08 10:56:35;;;;;;;173.80;92.43;;;16.80;81.00;;;;;;5065644;28;20035;-48
2021/06/08 10:59:10;;;;;;;185.50;92.18;;;16.80;81.00;;;;;;5066334;28;20068;-52
2021/06/08 11:01:41;;;;;;;173.82;90.75;;;16.80;80.90;;;;;;5069942;28;20057;-54
2021/06/08 11:04:28;;;;;;;169.88;87.00;;;16.70;81.50;;;;;;5066213;28;20149;-45
2021/06/08 11:07:03;;;;;;;178.77;86.50;;;16.70;82.00;;;;;;5065874;28;20043;-52
2021/06/08 11:09:33;;;;;;;176.20;88.63;;;16.70;82.40;;;;;;5051410;28;20033;-58
2021/06/08 11:12:01;;;;;;;169.63;87.20;;;16.70;82.20;;;;;;5069770;28;20123;-51
2021/06/08 11:14:43;;;;;;;164.23;84.40;;;16.60;82.80;;;;;;5068997;28;20151;-46
2021/06/08 11:17:27;;;;;;;168.83;84.37;;;16.70;82.20;;;;;;5066910;28;20387;-54
2021/06/08 11:19:57;;;;;;;168.75;87.03;;;16.70;82.10;;;;;;5069276;28;20843;-50
2021/06/08 11:22:33;;;;;;;154.60;84.28;;;16.70;82.10;;;;;;5069104;28;20033;-50
2021/06/08 11:25:02;;;;;;;155.23;85.57;;;16.60;82.10;;;;;;5066042;28;21797;-46
2021/06/08 11:27:59;;;;;;;164.80;87.57;;;16.70;82.00;;;;;;5068313;28;20028;-47
2021/06/08 11:31:01;;;;;;;162.32;87.13;;;16.70;82.00;;;;;;5067210;28;20032;-55
2021/06/08 11:33:41;;;;;;;161.48;83.07;;;16.70;82.10;;;;;;5069247;28;20028;-47
2021/06/08 11:36:22;;;;;;;147.30;81.93;;;16.60;82.00;;;;;;5064897;28;20112;-52
2021/06/08 11:38:57;;;;;;;149.10;80.38;;;16.60;82.20;;;;;;5065913;28;20027;-51
2021/06/08 11:41:25;;;;;;;157.57;83.70;;;16.60;82.40;;;;;;5069018;28;20031;-53
2021/06/08 11:43:58;;;;;;;162.80;80.55;;;16.60;82.30;;;;;;5069160;28;20023;-51
2021/06/08 11:46:31;;;;;;;146.68;80.05;;;16.60;82.30;;;;;;5065937;28;20033;-46
2021/06/08 11:49:19;;;;;;;158.95;85.43;;;16.70;82.40;;;;;;5072682;28;20016;-50
2021/06/08 11:52:08;;;;;;;146.25;80.22;;;16.60;82.20;;;;;;5073535;28;20025;-63
2021/06/08 11:54:38;;;;;;;153.85;81.90;;;16.70;82.30;;;;;;5072117;28;20033;-51
2021/06/08 11:57:37;;;;;;;141.35;75.88;;;16.60;82.40;;;;;;5070287;28;20059;-58
2021/06/08 12:00:08;;;;;;;146.13;77.75;;;16.60;82.20;;;;;;5053674;28;20044;-55
2021/06/08 12:02:48;;;;;;;138.70;78.63;;;16.60;82.20;;;;;;5073284;28;20048;-51
2021/06/08 12:05:44;;;;;;;137.00;74.18;;;16.60;82.30;;;;;;5069058;28;20444;-46
2021/06/08 12:08:23;;;;;;;140.38;75.95;;;16.60;82.30;;;;;;5072024;28;20032;-48
2021/06/08 12:10:53;;;;;;;146.88;76.72;;;16.60;82.50;;;;;;5051946;28;20391;-46
2021/06/08 12:13:31;;;;;;;139.60;76.07;;;16.60;82.40;;;;;;5069016;28;20053;-49
2021/06/08 12:16:00;;;;;;;136.77;75.55;;;16.60;82.30;;;;;;5067786;28;20029;-52
2021/06/08 12:18:33;;;;;;;127.57;73.70;;;16.60;82.30;;;;;;5055023;28;20112;-62
2021/06/08 12:21:01;;;;;;;137.85;72.43;;;16.60;82.40;;;;;;5073460;28;20025;-54
2021/06/08 12:23:34;;;;;;;131.98;73.28;;;16.60;82.70;;;;;;5038012;28;20024;-44
2021/06/08 12:26:21;;;;;;;128.68;69.20;;;16.60;82.30;;;;;;5069834;28;20490;-46
2021/06/08 12:29:13;;;;;;;131.88;69.75;;;16.50;82.60;;;;;;5054413;28;20131;-46
2021/06/08 12:31:52;;;;;;;130.55;70.55;;;16.50;82.50;;;;;;5071377;28;20111;-50
2021/06/08 12:34:20;;;;;;;128.07;68.63;;;16.50;82.70;;;;;;5072522;28;20383;-47
2021/06/08 12:36:49;;;;;;;119.88;68.07;;;16.50;82.70;;;;;;5051133;28;20021;-44
2021/06/08 12:39:19;;;;;;;130.52;70.93;;;16.50;82.60;;;;;;5072607;28;20209;-54
2021/06/08 12:41:46;;;;;;;116.90;66.72;;;16.50;82.50;;;;;;5071635;28;20035;-50
2021/06/08 12:44:29;;;;;;;117.15;64.78;;;16.50;82.60;;;;;;5072405;28;20378;-46
2021/06/08 12:46:57;;;;;;;115.15;66.68;;;16.50;82.90;;;;;;5068881;28;20037;-53
2021/06/08 12:49:25;;;;;;;115.70;66.88;;;16.50;82.80;;;;;;5055109;28;20035;-59
2021/06/08 12:52:00;;;;;;;113.03;65.20;;;16.50;82.80;;;;;;5075159;28;20055;-56
2021/06/08 12:54:38;;;;;;;110.95;64.95;;;16.50;82.60;;;;;;5074863;28;20094;-48
2021/06/08 12:57:12;;;;;;;114.70;64.28;;;16.50;82.80;;;;;;5056969;28;20383;-57
2021/06/08 12:59:53;;;;;;;117.50;63.50;;;16.50;82.70;;;;;;5074255;28;20036;-59
2021/06/08 13:02:22;;;;;;;107.43;61.75;;;16.40;82.70;;;;;;5074963;28;20024;-51
2021/06/08 13:04:50;;;;;;;112.60;60.33;;;16.40;82.70;;;;;;5074892;28;20031;-51